createdAt,value
2019-05-31T00:01:41.871Z,14.40
2019-05-31T00:04:10.319Z,14.60
2019-05-31T00:06:38.750Z,15.00
2019-05-31T00:09:07.670Z,15.77
2019-05-31T00:11:36.117Z,14.70
2019-05-31T00:14:19.872Z,15.53
2019-05-31T00:16:34.834Z,17.77
2019-05-31T00:19:03.287Z,16.37
2019-05-31T00:21:31.717Z,17.73
2019-05-31T00:24:03.085Z,16.43
2019-05-31T00:26:31.518Z,15.50
2019-05-31T00:29:00.947Z,17.20
2019-05-31T00:31:29.770Z,16.13
2019-05-31T00:33:59.409Z,16.90
2019-05-31T00:36:28.365Z,19.17
2019-05-31T00:38:56.914Z,17.47
2019-05-31T00:41:25.452Z,18.30
2019-05-31T00:43:55.100Z,19.03
2019-05-31T00:46:26.974Z,20.77
2019-05-31T00:48:57.406Z,19.57
2019-05-31T00:51:26.046Z,19.60
2019-05-31T00:53:54.501Z,20.53
2019-05-31T00:56:22.989Z,21.73
2019-05-31T00:58:51.489Z,20.93
2019-05-31T01:01:19.921Z,22.30
2019-05-31T01:03:48.537Z,20.60
2019-05-31T01:06:16.970Z,21.27
2019-05-31T01:08:45.402Z,19.30
2019-05-31T01:11:13.849Z,21.30
2019-05-31T01:13:42.277Z,21.93
2019-05-31T01:16:10.725Z,21.43
2019-05-31T01:18:39.166Z,19.83
2019-05-31T01:21:08.848Z,23.03
2019-05-31T01:23:37.724Z,22.50
2019-05-31T01:26:07.294Z,22.17
2019-05-31T01:28:35.985Z,23.03
2019-05-31T01:31:05.682Z,22.87
2019-05-31T01:33:34.240Z,25.70
2019-05-31T01:36:02.683Z,25.40
2019-05-31T01:38:31.122Z,25.03
2019-05-31T01:41:00.608Z,24.97
2019-05-31T01:43:29.238Z,25.77
2019-05-31T01:45:57.878Z,24.70
2019-05-31T01:48:26.310Z,24.80
2019-05-31T01:50:54.755Z,25.47
2019-05-31T01:53:23.181Z,26.80
2019-05-31T01:55:51.632Z,25.17
2019-05-31T01:58:20.081Z,26.50
2019-05-31T02:00:48.519Z,27.00
2019-05-31T02:03:16.966Z,27.03
2019-05-31T02:05:45.405Z,28.20
2019-05-31T02:08:13.838Z,28.97
2019-05-31T02:10:42.855Z,26.03
2019-05-31T02:13:11.344Z,26.50
2019-05-31T02:15:39.845Z,25.53
2019-05-31T02:18:08.682Z,29.00
2019-05-31T02:20:37.533Z,28.53
2019-05-31T02:23:05.993Z,27.90
2019-05-31T02:25:34.483Z,27.23
2019-05-31T02:28:02.913Z,27.50
2019-05-31T02:30:31.542Z,27.00
2019-05-31T02:33:00.024Z,28.10
2019-05-31T02:35:28.518Z,27.40
2019-05-31T02:37:57.106Z,28.13
2019-05-31T02:40:27.304Z,27.57
2019-05-31T02:42:55.762Z,27.40
2019-05-31T02:45:24.194Z,29.20
2019-05-31T02:47:52.634Z,26.10
2019-05-31T02:50:35.486Z,29.67
2019-05-31T02:53:05.154Z,26.80
2019-05-31T02:55:34.729Z,26.80
2019-05-31T02:58:03.743Z,27.87
2019-05-31T03:00:32.173Z,25.80
2019-05-31T03:03:04.147Z,27.77
2019-05-31T03:05:35.354Z,26.83
2019-05-31T03:08:07.466Z,26.87
2019-05-31T03:10:37.449Z,29.30
2019-05-31T03:13:06.945Z,27.87
2019-05-31T03:15:36.247Z,28.87
2019-05-31T03:18:05.002Z,27.60
2019-05-31T03:20:33.546Z,27.00
2019-05-31T03:23:02.007Z,27.30
2019-05-31T03:25:30.433Z,26.03
2019-05-31T03:27:58.874Z,25.70
2019-05-31T03:30:35.817Z,25.93
2019-05-31T03:32:57.500Z,26.50
2019-05-31T03:35:36.268Z,27.30
2019-05-31T03:37:56.301Z,27.77
2019-05-31T03:40:24.730Z,26.13
2019-05-31T03:42:53.175Z,26.00
2019-05-31T03:45:23.803Z,26.57
2019-05-31T03:47:51.779Z,26.07
2019-05-31T03:50:22.959Z,27.90
2019-05-31T03:52:50.372Z,31.17
2019-05-31T03:55:19.915Z,27.67
2019-05-31T03:57:48.965Z,26.80
2019-05-31T04:00:19.558Z,26.90
2019-05-31T04:02:47.938Z,25.30
2019-05-31T04:05:16.747Z,27.40
2019-05-31T04:07:45.290Z,26.70
2019-05-31T04:10:15.841Z,24.37
2019-05-31T04:12:44.182Z,25.30
2019-05-31T04:15:15.173Z,27.70
2019-05-31T04:17:43.691Z,25.83
2019-05-31T04:20:12.192Z,26.13
2019-05-31T04:22:40.631Z,27.90
2019-05-31T04:25:09.065Z,25.43
2019-05-31T04:27:37.504Z,25.60
2019-05-31T04:30:06.956Z,23.70
2019-05-31T04:32:35.445Z,23.80
2019-05-31T04:35:05.967Z,27.93
2019-05-31T04:37:34.406Z,26.13
2019-05-31T04:40:02.870Z,27.10
2019-05-31T04:42:31.310Z,25.73
2019-05-31T04:44:59.754Z,25.77
2019-05-31T04:47:28.198Z,26.00
2019-05-31T04:49:56.849Z,25.03
2019-05-31T04:52:26.797Z,24.67
2019-05-31T04:54:55.762Z,27.73
2019-05-31T04:57:24.538Z,24.50
2019-05-31T04:59:53.268Z,22.40
2019-05-31T05:02:22.790Z,25.00
2019-05-31T05:04:51.519Z,25.10
2019-05-31T05:07:20.662Z,25.63
2019-05-31T05:09:49.504Z,25.30
2019-05-31T05:12:18.417Z,24.20
2019-05-31T05:14:47.256Z,23.73
2019-05-31T05:17:28.599Z,23.83
2019-05-31T05:19:45.907Z,25.03
2019-05-31T05:22:14.334Z,22.83
2019-05-31T05:24:42.774Z,22.67
2019-05-31T05:27:11.207Z,21.90
2019-05-31T05:29:39.652Z,22.97
2019-05-31T05:32:08.079Z,23.60
2019-05-31T05:34:36.518Z,24.53
2019-05-31T05:37:05.422Z,22.20
2019-05-31T05:39:33.861Z,23.57
2019-05-31T05:42:03.027Z,23.17
2019-05-31T05:44:31.501Z,21.13
2019-05-31T05:47:00.122Z,21.00
2019-05-31T05:49:29.805Z,18.67
2019-05-31T05:51:58.455Z,20.67
2019-05-31T05:54:28.522Z,19.83
2019-05-31T05:56:57.335Z,21.50
2019-05-31T05:59:25.766Z,21.40
2019-05-31T06:01:54.206Z,19.60
2019-05-31T06:04:23.643Z,21.47
2019-05-31T06:06:52.357Z,19.53
2019-05-31T06:09:20.789Z,18.57
2019-05-31T06:11:49.258Z,18.07
2019-05-31T06:14:21.141Z,18.30
2019-05-31T06:17:01.241Z,18.07
2019-05-31T06:19:18.016Z,18.63
2019-05-31T06:21:46.551Z,17.33
2019-05-31T06:24:15.096Z,17.97
2019-05-31T06:26:43.546Z,16.77
2019-05-31T06:29:12.166Z,19.17
2019-05-31T06:31:40.618Z,17.17
2019-05-31T06:34:09.050Z,17.93
2019-05-31T06:36:37.494Z,16.73
2019-05-31T06:39:08.069Z,16.87
2019-05-31T06:41:36.659Z,16.90
2019-05-31T06:44:06.321Z,16.43
2019-05-31T06:46:36.049Z,15.63
2019-05-31T06:49:07.070Z,15.63
2019-05-31T06:51:35.622Z,14.73
2019-05-31T06:54:04.237Z,17.13
2019-05-31T06:56:33.754Z,15.83
2019-05-31T06:59:02.395Z,15.00
2019-05-31T07:01:32.147Z,14.80
2019-05-31T07:04:01.193Z,14.90
2019-05-31T07:06:30.640Z,17.30
2019-05-31T07:08:59.338Z,15.67
2019-05-31T07:11:27.785Z,14.20
2019-05-31T07:13:56.219Z,15.07
2019-05-31T07:16:24.660Z,13.73
2019-05-31T07:18:54.478Z,13.93
2019-05-31T07:21:23.249Z,13.70
2019-05-31T07:23:51.683Z,13.87
2019-05-31T07:26:20.198Z,15.00
2019-05-31T07:28:48.630Z,14.30
2019-05-31T07:31:17.197Z,15.10
2019-05-31T07:33:45.706Z,14.97
2019-05-31T07:36:14.267Z,14.50
2019-05-31T07:38:42.798Z,14.80
2019-05-31T07:41:11.235Z,14.07
2019-05-31T07:43:39.688Z,13.80
2019-05-31T07:46:08.109Z,12.57
2019-05-31T07:48:59.010Z,12.57
2019-05-31T07:51:06.710Z,14.47
2019-05-31T07:53:35.149Z,14.47
2019-05-31T07:56:03.633Z,13.43
2019-05-31T07:58:33.199Z,12.00
2019-05-31T08:01:02.315Z,12.33
2019-05-31T08:03:31.086Z,11.83
2019-05-31T08:05:59.811Z,12.87
2019-05-31T08:08:29.467Z,14.37
2019-05-31T08:11:03.156Z,13.70
2019-05-31T08:13:29.194Z,12.20
2019-05-31T08:15:57.833Z,12.70
2019-05-31T08:18:27.912Z,12.30
2019-05-31T08:20:56.699Z,11.80
2019-05-31T08:23:26.978Z,12.37
2019-05-31T08:25:56.707Z,11.70
2019-05-31T08:28:25.874Z,11.40
2019-05-31T08:30:54.572Z,11.63
2019-05-31T08:33:23.010Z,9.67
2019-05-31T08:35:51.434Z,10.03
2019-05-31T08:38:19.897Z,11.37
2019-05-31T08:40:48.330Z,10.20
2019-05-31T08:43:16.780Z,10.43
2019-05-31T08:45:45.212Z,9.80
2019-05-31T08:48:14.041Z,9.37
2019-05-31T08:50:42.674Z,9.20
2019-05-31T08:53:11.134Z,9.43
2019-05-31T08:55:39.962Z,10.03
2019-05-31T08:58:08.542Z,10.07
2019-05-31T09:00:38.304Z,10.37
2019-05-31T09:03:07.095Z,9.60
2019-05-31T09:05:36.530Z,9.60
2019-05-31T09:08:05.145Z,9.13
2019-05-31T09:10:34.922Z,8.80
2019-05-31T09:13:03.756Z,7.23
2019-05-31T09:15:33.482Z,7.60
2019-05-31T09:18:02.409Z,8.10
2019-05-31T09:20:32.186Z,7.37
2019-05-31T09:23:01.147Z,7.17
2019-05-31T09:25:31.546Z,7.13
2019-05-31T09:27:59.810Z,8.27
2019-05-31T09:30:28.253Z,7.63
2019-05-31T09:32:56.682Z,7.63
2019-05-31T09:35:25.290Z,7.73
2019-05-31T09:37:53.723Z,8.70
2019-05-31T09:40:22.444Z,7.00
2019-05-31T09:42:54.687Z,6.60
2019-05-31T09:45:24.285Z,7.40
2019-05-31T09:47:51.727Z,7.73
2019-05-31T09:50:20.233Z,7.77
2019-05-31T09:52:48.743Z,7.60
2019-05-31T09:55:17.657Z,6.10
2019-05-31T09:57:48.338Z,7.03
2019-05-31T10:00:18.582Z,8.67
2019-05-31T10:02:47.106Z,6.37
2019-05-31T10:05:16.887Z,6.37
2019-05-31T10:07:45.313Z,6.63
2019-05-31T10:10:15.195Z,6.53
2019-05-31T10:12:43.808Z,8.70
2019-05-31T10:15:13.191Z,6.87
2019-05-31T10:17:43.907Z,6.73
2019-05-31T10:20:29.126Z,7.23
2019-05-31T10:22:44.078Z,6.50
2019-05-31T10:25:14.783Z,7.60
2019-05-31T10:27:43.789Z,6.60
2019-05-31T10:30:15.135Z,6.60
2019-05-31T10:32:44.237Z,7.33
2019-05-31T10:35:14.284Z,7.00
2019-05-31T10:37:44.130Z,7.20
2019-05-31T10:40:14.598Z,5.53
2019-05-31T10:42:44.506Z,6.03
2019-05-31T10:45:13.985Z,6.23
2019-05-31T10:47:42.493Z,5.80
2019-05-31T10:50:11.700Z,6.30
2019-05-31T10:52:43.644Z,6.47
2019-05-31T10:55:11.488Z,7.00
2019-05-31T10:57:40.528Z,6.33
2019-05-31T11:00:12.401Z,6.50
2019-05-31T11:02:42.566Z,6.17
2019-05-31T11:05:11.769Z,5.33
2019-05-31T11:07:40.825Z,6.10
2019-05-31T11:10:11.850Z,6.03
2019-05-31T11:12:41.271Z,6.57
2019-05-31T11:15:11.090Z,7.17
2019-05-31T11:17:44.691Z,6.03
2019-05-31T11:20:11.058Z,6.40
2019-05-31T11:22:39.955Z,5.80
2019-05-31T11:25:09.224Z,5.87
2019-05-31T11:27:38.178Z,5.83
2019-05-31T11:30:12.287Z,6.30
2019-05-31T11:32:46.433Z,6.13
2019-05-31T11:35:11.627Z,5.87
2019-05-31T11:37:43.272Z,5.73
2019-05-31T11:40:10.933Z,5.47
2019-05-31T11:42:59.315Z,5.33
2019-05-31T11:45:10.658Z,5.13
2019-05-31T11:47:42.780Z,5.43
2019-05-31T11:50:10.464Z,6.87
2019-05-31T11:52:39.233Z,5.57
2019-05-31T11:55:24.714Z,5.03
2019-05-31T11:57:39.485Z,5.00
2019-05-31T12:00:10.812Z,6.43
2019-05-31T12:02:39.799Z,5.30
2019-05-31T12:05:09.113Z,5.80
2019-05-31T12:07:37.965Z,6.43
2019-05-31T12:10:07.998Z,6.20
2019-05-31T12:12:38.568Z,7.10
2019-05-31T12:15:09.007Z,6.80
2019-05-31T12:17:38.052Z,7.87
2019-05-31T12:20:14.880Z,6.77
2019-05-31T12:22:38.767Z,7.57
2019-05-31T12:25:08.354Z,7.10
2019-05-31T12:27:40.606Z,7.50
2019-05-31T12:30:20.782Z,8.10
2019-05-31T12:32:42.270Z,7.43
2019-05-31T12:35:11.696Z,8.90
2019-05-31T12:37:40.555Z,8.30
2019-05-31T12:40:10.845Z,9.40
2019-05-31T12:42:41.443Z,7.20
2019-05-31T12:45:10.746Z,6.57
2019-05-31T12:47:42.399Z,6.47
2019-05-31T12:50:11.075Z,7.17
2019-05-31T12:52:41.162Z,6.70
2019-05-31T12:55:11.006Z,6.27
2019-05-31T12:57:40.618Z,6.43
2019-05-31T13:00:13.666Z,7.07
2019-05-31T13:02:45.962Z,7.00
2019-05-31T13:05:14.098Z,6.67
2019-05-31T13:07:44.152Z,5.43
2019-05-31T13:10:16.486Z,6.63
2019-05-31T13:12:44.959Z,6.50
2019-05-31T13:15:15.616Z,5.60
2019-05-31T13:17:46.015Z,7.00
2019-05-31T13:20:15.890Z,5.77
2019-05-31T13:22:45.628Z,4.97
2019-05-31T13:25:14.881Z,5.10
2019-05-31T13:27:44.549Z,6.40
2019-05-31T13:30:16.689Z,5.27
2019-05-31T13:32:47.272Z,6.33
2019-05-31T13:35:16.450Z,6.90
2019-05-31T13:37:45.579Z,6.40
2019-05-31T13:40:15.066Z,6.23
2019-05-31T13:42:43.699Z,8.83
2019-05-31T13:45:12.982Z,5.70
2019-05-31T13:47:41.781Z,5.63
2019-05-31T13:50:10.967Z,10.30
2019-05-31T13:52:41.463Z,8.27
2019-05-31T13:55:10.214Z,6.57
2019-05-31T13:57:38.660Z,7.10
2019-05-31T14:00:11.562Z,6.77
2019-05-31T14:02:40.000Z,6.60
2019-05-31T14:05:09.586Z,6.77
2019-05-31T14:07:38.086Z,8.63
2019-05-31T14:10:08.162Z,7.00
2019-05-31T14:12:36.599Z,6.77
2019-05-31T14:15:09.558Z,6.40
2019-05-31T14:17:38.276Z,6.20
2019-05-31T14:20:10.590Z,5.63
2019-05-31T14:22:57.484Z,5.73
2019-05-31T14:25:12.252Z,5.80
2019-05-31T14:27:40.690Z,6.10
2019-05-31T14:30:11.154Z,6.27
2019-05-31T14:32:41.218Z,6.40
2019-05-31T14:35:11.213Z,8.70
2019-05-31T14:37:39.668Z,10.10
2019-05-31T14:40:09.579Z,9.43
2019-05-31T14:42:38.033Z,8.73
2019-05-31T14:45:08.825Z,10.07
2019-05-31T14:47:37.818Z,10.90
2019-05-31T14:50:07.970Z,9.50
2019-05-31T14:52:36.417Z,9.47
2019-05-31T14:55:06.286Z,8.83
2019-05-31T14:57:34.730Z,9.60
2019-05-31T15:00:03.163Z,7.30
2019-05-31T15:02:31.610Z,8.77
2019-05-31T15:05:03.836Z,7.07
2019-05-31T15:07:30.682Z,9.60
2019-05-31T15:09:59.895Z,8.70
2019-05-31T15:12:32.051Z,8.70
2019-05-31T15:15:00.497Z,8.23
2019-05-31T15:17:28.941Z,7.27
2019-05-31T15:19:59.656Z,6.50
2019-05-31T15:22:27.678Z,7.37
2019-05-31T15:24:58.673Z,7.17
2019-05-31T15:27:27.182Z,7.80
2019-05-31T15:29:55.633Z,7.20
2019-05-31T15:32:42.034Z,7.40
2019-05-31T15:35:28.694Z,8.70
2019-05-31T15:37:57.926Z,7.97
2019-05-31T15:40:32.193Z,7.53
2019-05-31T15:43:03.657Z,7.73
2019-05-31T15:45:32.445Z,7.90
2019-05-31T15:48:01.074Z,8.33
2019-05-31T15:50:29.622Z,7.00
2019-05-31T15:53:07.211Z,7.93
2019-05-31T15:55:28.791Z,9.47
2019-05-31T15:57:57.465Z,9.13
2019-05-31T16:00:37.522Z,10.67
2019-05-31T16:03:07.208Z,9.93
2019-05-31T16:05:37.173Z,10.20
2019-05-31T16:08:06.955Z,9.53
2019-05-31T16:10:35.574Z,10.47
2019-05-31T16:13:04.933Z,9.73
2019-05-31T16:15:33.624Z,10.50
2019-05-31T16:18:03.368Z,10.00
2019-05-31T16:20:32.263Z,9.43
2019-05-31T16:23:01.447Z,9.73
2019-05-31T16:25:30.583Z,12.03
2019-05-31T16:27:59.642Z,11.90
2019-05-31T16:30:28.202Z,10.20
2019-05-31T16:32:58.042Z,9.20
2019-05-31T16:35:27.541Z,8.83
2019-05-31T16:37:55.983Z,8.57
2019-05-31T16:40:33.096Z,10.57
2019-05-31T16:43:01.641Z,9.63
2019-05-31T16:45:30.261Z,10.80
2019-05-31T16:48:00.058Z,10.23
2019-05-31T16:50:31.992Z,9.87
2019-05-31T16:53:02.515Z,9.33
2019-05-31T16:55:31.374Z,9.80
2019-05-31T16:57:59.809Z,10.20
2019-05-31T17:00:28.263Z,7.77
2019-05-31T17:02:57.739Z,7.70
2019-05-31T17:05:26.414Z,9.17
2019-05-31T17:07:54.846Z,8.50
2019-05-31T17:10:23.303Z,8.00
2019-05-31T17:12:51.737Z,7.83
2019-05-31T17:15:20.257Z,8.30
2019-05-31T17:17:48.690Z,8.73
2019-05-31T17:20:17.306Z,9.10
2019-05-31T17:22:45.744Z,9.73
2019-05-31T17:25:14.451Z,8.30
2019-05-31T17:27:42.882Z,9.50
2019-05-31T17:30:13.068Z,9.33
2019-05-31T17:32:41.973Z,9.63
2019-05-31T17:35:12.023Z,9.57
2019-05-31T17:37:41.129Z,12.20
2019-05-31T17:40:11.627Z,9.30
2019-05-31T17:42:40.206Z,8.70
2019-05-31T17:45:09.050Z,8.10
2019-05-31T17:47:38.155Z,8.63
2019-05-31T17:50:08.528Z,9.17
2019-05-31T17:52:37.835Z,7.10
2019-05-31T17:55:08.671Z,6.70
2019-05-31T17:57:43.696Z,6.60
2019-05-31T18:00:11.286Z,7.33
2019-05-31T18:02:39.824Z,6.80
2019-05-31T18:05:12.854Z,6.23
2019-05-31T18:07:39.822Z,7.27
2019-05-31T18:10:10.591Z,6.30
2019-05-31T18:12:39.584Z,6.73
2019-05-31T18:15:09.013Z,6.87
2019-05-31T18:17:37.449Z,10.00
2019-05-31T18:20:07.071Z,7.63
2019-05-31T18:22:36.570Z,6.80
2019-05-31T18:25:18.137Z,7.47
2019-05-31T18:27:38.673Z,6.77
2019-05-31T18:30:08.561Z,7.40
2019-05-31T18:32:37.678Z,7.47
2019-05-31T18:35:06.488Z,7.07
2019-05-31T18:37:34.946Z,6.97
2019-05-31T18:40:03.792Z,7.80
2019-05-31T18:42:32.234Z,8.27
2019-05-31T18:45:00.666Z,6.47
2019-05-31T18:47:29.108Z,6.53
2019-05-31T18:49:57.590Z,6.50
2019-05-31T18:52:26.029Z,6.40
2019-05-31T18:54:54.465Z,5.70
2019-05-31T18:57:22.913Z,5.70
2019-05-31T18:59:54.595Z,6.77
2019-05-31T19:02:23.044Z,6.50
2019-05-31T19:04:52.641Z,6.30
2019-05-31T19:07:21.380Z,6.50
2019-05-31T19:09:50.245Z,6.90
2019-05-31T19:12:19.165Z,6.47
2019-05-31T19:14:47.809Z,6.57
2019-05-31T19:17:17.371Z,6.90
2019-05-31T19:19:46.115Z,6.17
2019-05-31T19:22:15.325Z,6.07
2019-05-31T19:24:44.683Z,6.70
2019-05-31T19:27:14.373Z,6.03
2019-05-31T19:29:43.378Z,6.30
2019-05-31T19:32:11.825Z,6.57
2019-05-31T19:34:40.272Z,6.60
2019-05-31T19:37:09.729Z,6.20
2019-05-31T19:39:38.172Z,5.83
2019-05-31T19:42:06.610Z,5.87
2019-05-31T19:44:35.051Z,6.80
2019-05-31T19:47:03.585Z,5.70
2019-05-31T19:49:32.041Z,5.87
2019-05-31T19:52:00.478Z,6.40
2019-05-31T19:54:29.135Z,6.50
2019-05-31T19:56:57.617Z,8.70
2019-05-31T19:59:26.081Z,6.70
2019-05-31T20:01:54.569Z,6.20
2019-05-31T20:04:23.009Z,7.00
2019-05-31T20:06:51.443Z,7.00
2019-05-31T20:09:21.039Z,5.83
2019-05-31T20:11:49.852Z,6.90
2019-05-31T20:14:19.953Z,6.57
2019-05-31T20:16:50.086Z,7.37
2019-05-31T20:19:19.143Z,7.27
2019-05-31T20:21:48.694Z,7.73
2019-05-31T20:24:18.371Z,7.57
2019-05-31T20:26:47.057Z,7.20
2019-05-31T20:29:17.458Z,7.93
2019-05-31T20:31:45.693Z,8.67
2019-05-31T20:34:14.269Z,7.10
2019-05-31T20:36:42.701Z,6.83
2019-05-31T20:39:11.156Z,7.43
2019-05-31T20:41:42.683Z,6.63
2019-05-31T20:44:09.888Z,6.70
2019-05-31T20:46:38.322Z,7.10
2019-05-31T20:49:06.757Z,8.10
2019-05-31T20:51:35.190Z,8.00
2019-05-31T20:54:03.901Z,8.60
2019-05-31T20:56:32.534Z,8.13
2019-05-31T20:59:00.981Z,7.87
2019-05-31T21:01:33.309Z,7.87
2019-05-31T21:03:59.628Z,8.67
2019-05-31T21:06:34.254Z,8.83
2019-05-31T21:08:58.328Z,7.80
2019-05-31T21:11:27.565Z,8.77
2019-05-31T21:13:56.380Z,7.90
2019-05-31T21:16:25.890Z,8.90
2019-05-31T21:18:54.726Z,7.80
2019-05-31T21:21:24.210Z,8.73
2019-05-31T21:23:52.701Z,8.23
2019-05-31T21:26:21.212Z,8.77
2019-05-31T21:28:53.010Z,8.30
2019-05-31T21:31:19.806Z,8.00
2019-05-31T21:33:48.266Z,8.40
2019-05-31T21:36:16.713Z,8.87
2019-05-31T21:38:45.156Z,8.40
2019-05-31T21:41:13.648Z,9.17
2019-05-31T21:43:42.073Z,8.77
2019-05-31T21:46:10.520Z,10.87
2019-05-31T21:48:38.952Z,10.90
2019-05-31T21:51:07.402Z,10.73
2019-05-31T21:53:35.829Z,16.43
2019-05-31T21:56:04.661Z,14.27
2019-05-31T21:58:33.150Z,11.23
2019-05-31T22:01:03.327Z,10.27
2019-05-31T22:03:37.918Z,10.70
2019-05-31T22:06:02.821Z,10.00
2019-05-31T22:08:32.063Z,9.80
2019-05-31T22:11:01.732Z,10.30
2019-05-31T22:13:31.127Z,11.37
2019-05-31T22:15:59.699Z,10.00
2019-05-31T22:18:28.127Z,11.20
2019-05-31T22:20:56.562Z,16.73
2019-05-31T22:23:24.990Z,20.43
2019-05-31T22:25:53.432Z,25.17
2019-05-31T22:28:21.864Z,28.37
2019-05-31T22:30:54.629Z,14.33
2019-05-31T22:33:23.061Z,16.87
2019-05-31T22:35:51.502Z,11.10
2019-05-31T22:38:19.935Z,13.37
2019-05-31T22:40:48.376Z,15.63
2019-05-31T22:43:16.807Z,10.87
2019-05-31T22:45:45.241Z,17.43
2019-05-31T22:48:13.685Z,12.60
2019-05-31T22:50:42.125Z,12.63
2019-05-31T22:53:10.565Z,14.87
2019-05-31T22:55:40.106Z,16.47
2019-05-31T22:58:08.620Z,20.63
2019-05-31T23:00:38.210Z,29.63
2019-05-31T23:03:06.869Z,13.73
2019-05-31T23:05:36.383Z,14.53
2019-05-31T23:08:05.630Z,16.60
2019-05-31T23:10:34.694Z,16.53
2019-05-31T23:13:04.089Z,13.60
2019-05-31T23:15:32.578Z,17.50
2019-05-31T23:18:01.017Z,20.83
2019-05-31T23:20:29.466Z,12.23
2019-05-31T23:22:57.907Z,26.63
2019-05-31T23:25:26.343Z,17.40
2019-05-31T23:27:54.786Z,17.47
2019-05-31T23:30:23.386Z,12.50
2019-05-31T23:32:51.825Z,12.97
2019-05-31T23:35:20.284Z,13.00
2019-05-31T23:37:48.718Z,11.33
2019-05-31T23:40:18.031Z,12.67
2019-05-31T23:42:46.775Z,11.97
2019-05-31T23:45:15.457Z,16.00
2019-05-31T23:47:44.917Z,11.63
2019-05-31T23:50:14.116Z,11.00
2019-05-31T23:52:43.473Z,12.23
2019-05-31T23:55:12.952Z,11.87
2019-05-31T23:57:41.926Z,12.23
